sensor_id;sensor_type;location;lat;lon;timestamp;temperature;humidity
19281;DHT22;9774;52.034;5.342;2024-01-06T00:02:05;10.70;69.50
19281;DHT22;9774;52.034;5.342;2024-01-06T00:04:32;10.70;69.50
19281;DHT22;9774;52.034;5.342;2024-01-06T00:06:59;10.60;69.50
19281;DHT22;9774;52.034;5.342;2024-01-06T00:09:26;10.60;69.60
19281;DHT22;9774;52.034;5.342;2024-01-06T00:11:53;10.60;69.60
19281;DHT22;9774;52.034;5.342;2024-01-06T00:14:20;10.60;69.50
19281;DHT22;9774;52.034;5.342;2024-01-06T00:16:47;10.60;69.40
19281;DHT22;9774;52.034;5.342;2024-01-06T00:19:16;10.50;69.10
19281;DHT22;9774;52.034;5.342;2024-01-06T00:21:43;10.50;69.10
19281;DHT22;9774;52.034;5.342;2024-01-06T00:24:10;10.50;69.20
19281;DHT22;9774;52.034;5.342;2024-01-06T00:26:37;10.50;69.20
19281;DHT22;9774;52.034;5.342;2024-01-06T00:29:04;10.40;69.00
19281;DHT22;9774;52.034;5.342;2024-01-06T00:31:31;10.40;68.90
19281;DHT22;9774;52.034;5.342;2024-01-06T00:33:58;10.40;68.90
19281;DHT22;9774;52.034;5.342;2024-01-06T00:36:27;10.40;68.90
19281;DHT22;9774;52.034;5.342;2024-01-06T00:38:54;10.30;68.90
19281;DHT22;9774;52.034;5.342;2024-01-06T00:41:21;10.30;68.90
19281;DHT22;9774;52.034;5.342;2024-01-06T00:43:48;10.30;68.80
19281;DHT22;9774;52.034;5.342;2024-01-06T00:46:15;10.20;68.70
19281;DHT22;9774;52.034;5.342;2024-01-06T00:48:42;10.20;68.70
19281;DHT22;9774;52.034;5.342;2024-01-06T00:51:09;10.20;68.80
19281;DHT22;9774;52.034;5.342;2024-01-06T00:53:37;10.20;68.70
19281;DHT22;9774;52.034;5.342;2024-01-06T00:56:05;10.20;68.70
19281;DHT22;9774;52.034;5.342;2024-01-06T00:58:32;10.10;68.70
19281;DHT22;9774;52.034;5.342;2024-01-06T01:00:59;10.10;68.70
19281;DHT22;9774;52.034;5.342;2024-01-06T01:03:26;10.10;68.70
19281;DHT22;9774;52.034;5.342;2024-01-06T01:05:53;10.10;68.70
19281;DHT22;9774;52.034;5.342;2024-01-06T01:08:20;10.00;68.70
19281;DHT22;9774;52.034;5.342;2024-01-06T01:10:48;10.00;68.70
19281;DHT22;9774;52.034;5.342;2024-01-06T01:13:15;10.00;68.80
19281;DHT22;9774;52.034;5.342;2024-01-06T01:15:42;10.00;68.80
19281;DHT22;9774;52.034;5.342;2024-01-06T01:18:09;10.00;68.80
19281;DHT22;9774;52.034;5.342;2024-01-06T01:20:36;10.00;68.90
19281;DHT22;9774;52.034;5.342;2024-01-06T01:23:03;10.00;69.00
19281;DHT22;9774;52.034;5.342;2024-01-06T01:25:30;10.00;69.00
19281;DHT22;9774;52.034;5.342;2024-01-06T01:27:59;10.00;68.90
19281;DHT22;9774;52.034;5.342;2024-01-06T01:30:26;9.90;68.80
19281;DHT22;9774;52.034;5.342;2024-01-06T01:32:53;9.90;68.80
19281;DHT22;9774;52.034;5.342;2024-01-06T01:35:20;9.90;68.80
19281;DHT22;9774;52.034;5.342;2024-01-06T01:37:47;9.90;68.80
19281;DHT22;9774;52.034;5.342;2024-01-06T01:40:14;9.90;68.80
19281;DHT22;9774;52.034;5.342;2024-01-06T01:42:42;9.90;68.80
19281;DHT22;9774;52.034;5.342;2024-01-06T01:45:11;9.90;68.90
19281;DHT22;9774;52.034;5.342;2024-01-06T01:47:38;9.90;68.90
19281;DHT22;9774;52.034;5.342;2024-01-06T01:50:06;9.90;68.90
19281;DHT22;9774;52.034;5.342;2024-01-06T01:52:35;9.90;68.80
19281;DHT22;9774;52.034;5.342;2024-01-06T01:55:04;9.90;68.80
19281;DHT22;9774;52.034;5.342;2024-01-06T01:57:31;9.90;68.80
19281;DHT22;9774;52.034;5.342;2024-01-06T02:00:00;9.90;68.70
19281;DHT22;9774;52.034;5.342;2024-01-06T02:02:29;9.80;68.50
19281;DHT22;9774;52.034;5.342;2024-01-06T02:04:57;9.80;68.60
19281;DHT22;9774;52.034;5.342;2024-01-06T02:07:26;9.80;68.50
19281;DHT22;9774;52.034;5.342;2024-01-06T02:09:53;9.80;68.50
19281;DHT22;9774;52.034;5.342;2024-01-06T02:12:20;9.70;68.40
19281;DHT22;9774;52.034;5.342;2024-01-06T02:14:47;9.70;68.30
19281;DHT22;9774;52.034;5.342;2024-01-06T02:17:14;9.70;68.50
19281;DHT22;9774;52.034;5.342;2024-01-06T02:19:42;9.60;68.30
19281;DHT22;9774;52.034;5.342;2024-01-06T02:22:11;9.60;68.30
19281;DHT22;9774;52.034;5.342;2024-01-06T02:24:38;9.60;68.40
19281;DHT22;9774;52.034;5.342;2024-01-06T02:27:05;9.60;68.40
19281;DHT22;9774;52.034;5.342;2024-01-06T02:29:32;9.50;68.40
19281;DHT22;9774;52.034;5.342;2024-01-06T02:31:59;9.50;68.50
19281;DHT22;9774;52.034;5.342;2024-01-06T02:34:26;9.50;68.60
19281;DHT22;9774;52.034;5.342;2024-01-06T02:36:53;9.50;68.60
19281;DHT22;9774;52.034;5.342;2024-01-06T02:39:21;9.50;68.60
19281;DHT22;9774;52.034;5.342;2024-01-06T02:41:49;9.50;68.70
19281;DHT22;9774;52.034;5.342;2024-01-06T02:44:16;9.50;68.70
19281;DHT22;9774;52.034;5.342;2024-01-06T02:46:43;9.50;68.90
19281;DHT22;9774;52.034;5.342;2024-01-06T02:49:10;9.50;68.80
19281;DHT22;9774;52.034;5.342;2024-01-06T02:51:37;9.50;68.60
19281;DHT22;9774;52.034;5.342;2024-01-06T02:54:04;9.50;68.60
19281;DHT22;9774;52.034;5.342;2024-01-06T02:56:32;9.50;68.60
19281;DHT22;9774;52.034;5.342;2024-01-06T02:58:59;9.50;68.50
19281;DHT22;9774;52.034;5.342;2024-01-06T03:01:27;9.40;68.30
19281;DHT22;9774;52.034;5.342;2024-01-06T03:03:54;9.40;68.40
19281;DHT22;9774;52.034;5.342;2024-01-06T03:06:21;9.40;68.50
19281;DHT22;9774;52.034;5.342;2024-01-06T03:08:48;9.40;68.50
19281;DHT22;9774;52.034;5.342;2024-01-06T03:11:15;9.40;68.50
19281;DHT22;9774;52.034;5.342;2024-01-06T03:13:43;9.40;68.50
19281;DHT22;9774;52.034;5.342;2024-01-06T03:16:11;9.30;68.40
19281;DHT22;9774;52.034;5.342;2024-01-06T03:18:39;9.30;69.20
19281;DHT22;9774;52.034;5.342;2024-01-06T03:21:16;9.30;69.30
19281;DHT22;9774;52.034;5.342;2024-01-06T03:23:44;9.30;68.60
19281;DHT22;9774;52.034;5.342;2024-01-06T03:26:11;9.30;68.60
19281;DHT22;9774;52.034;5.342;2024-01-06T03:28:38;9.30;68.60
19281;DHT22;9774;52.034;5.342;2024-01-06T03:31:06;9.30;68.50
19281;DHT22;9774;52.034;5.342;2024-01-06T03:33:33;9.30;68.50
19281;DHT22;9774;52.034;5.342;2024-01-06T03:36:04;9.30;68.50
19281;DHT22;9774;52.034;5.342;2024-01-06T03:38:33;9.30;68.60
19281;DHT22;9774;52.034;5.342;2024-01-06T03:41:00;9.20;68.60
19281;DHT22;9774;52.034;5.342;2024-01-06T03:43:27;9.20;68.60
19281;DHT22;9774;52.034;5.342;2024-01-06T03:45:54;9.20;68.60
19281;DHT22;9774;52.034;5.342;2024-01-06T03:48:23;9.20;68.60
19281;DHT22;9774;52.034;5.342;2024-01-06T03:50:50;9.20;68.60
19281;DHT22;9774;52.034;5.342;2024-01-06T03:53:17;9.20;68.60
19281;DHT22;9774;52.034;5.342;2024-01-06T03:55:44;9.20;68.60
19281;DHT22;9774;52.034;5.342;2024-01-06T03:58:11;9.20;68.60
19281;DHT22;9774;52.034;5.342;2024-01-06T04:00:38;9.20;68.50
19281;DHT22;9774;52.034;5.342;2024-01-06T04:03:05;9.20;68.60
19281;DHT22;9774;52.034;5.342;2024-01-06T04:05:35;9.20;68.40
19281;DHT22;9774;52.034;5.342;2024-01-06T04:08:02;9.20;68.40
19281;DHT22;9774;52.034;5.342;2024-01-06T04:10:29;9.20;68.50
19281;DHT22;9774;52.034;5.342;2024-01-06T04:12:56;9.20;68.60
19281;DHT22;9774;52.034;5.342;2024-01-06T04:15:23;9.20;68.60
19281;DHT22;9774;52.034;5.342;2024-01-06T04:17:50;9.20;68.50
19281;DHT22;9774;52.034;5.342;2024-01-06T04:20:18;9.10;68.50
19281;DHT22;9774;52.034;5.342;2024-01-06T04:22:46;9.10;68.50
19281;DHT22;9774;52.034;5.342;2024-01-06T04:25:13;9.10;68.50
19281;DHT22;9774;52.034;5.342;2024-01-06T04:27:40;9.10;68.40
19281;DHT22;9774;52.034;5.342;2024-01-06T04:30:08;9.10;68.40
19281;DHT22;9774;52.034;5.342;2024-01-06T04:32:36;9.00;68.40
19281;DHT22;9774;52.034;5.342;2024-01-06T04:35:04;9.00;68.40
19281;DHT22;9774;52.034;5.342;2024-01-06T04:37:31;9.00;68.40
19281;DHT22;9774;52.034;5.342;2024-01-06T04:40:00;9.00;68.40
19281;DHT22;9774;52.034;5.342;2024-01-06T04:42:28;9.00;68.40
19281;DHT22;9774;52.034;5.342;2024-01-06T04:44:55;8.90;68.40
19281;DHT22;9774;52.034;5.342;2024-01-06T04:47:22;8.90;68.50
19281;DHT22;9774;52.034;5.342;2024-01-06T04:49:49;8.90;68.50
19281;DHT22;9774;52.034;5.342;2024-01-06T04:52:16;8.90;68.50
19281;DHT22;9774;52.034;5.342;2024-01-06T04:54:43;8.90;68.50
19281;DHT22;9774;52.034;5.342;2024-01-06T04:57:11;8.90;68.40
19281;DHT22;9774;52.034;5.342;2024-01-06T04:59:38;8.90;68.50
19281;DHT22;9774;52.034;5.342;2024-01-06T05:02:05;8.90;68.40
19281;DHT22;9774;52.034;5.342;2024-01-06T05:04:32;8.90;68.40
19281;DHT22;9774;52.034;5.342;2024-01-06T05:07:00;8.90;68.30
19281;DHT22;9774;52.034;5.342;2024-01-06T05:09:27;8.90;68.30
19281;DHT22;9774;52.034;5.342;2024-01-06T05:11:54;8.80;68.30
19281;DHT22;9774;52.034;5.342;2024-01-06T05:14:22;8.80;68.30
19281;DHT22;9774;52.034;5.342;2024-01-06T05:16:49;8.80;68.30
19281;DHT22;9774;52.034;5.342;2024-01-06T05:19:16;8.80;68.40
19281;DHT22;9774;52.034;5.342;2024-01-06T05:21:46;8.80;68.40
19281;DHT22;9774;52.034;5.342;2024-01-06T05:24:14;8.80;68.40
19281;DHT22;9774;52.034;5.342;2024-01-06T05:26:41;8.80;68.40
19281;DHT22;9774;52.034;5.342;2024-01-06T05:29:08;8.80;68.40
19281;DHT22;9774;52.034;5.342;2024-01-06T05:31:37;8.80;68.40
19281;DHT22;9774;52.034;5.342;2024-01-06T05:34:04;8.70;68.30
19281;DHT22;9774;52.034;5.342;2024-01-06T05:36:31;8.70;68.30
19281;DHT22;9774;52.034;5.342;2024-01-06T05:38:58;8.70;68.30
19281;DHT22;9774;52.034;5.342;2024-01-06T05:41:26;8.70;68.30
19281;DHT22;9774;52.034;5.342;2024-01-06T05:43:53;8.70;68.30
19281;DHT22;9774;52.034;5.342;2024-01-06T05:46:24;8.70;68.30
19281;DHT22;9774;52.034;5.342;2024-01-06T05:48:53;8.60;68.30
19281;DHT22;9774;52.034;5.342;2024-01-06T05:51:21;8.60;68.40
19281;DHT22;9774;52.034;5.342;2024-01-06T05:53:48;8.60;68.40
19281;DHT22;9774;52.034;5.342;2024-01-06T05:56:22;8.60;68.40
19281;DHT22;9774;52.034;5.342;2024-01-06T05:58:50;8.60;68.40
19281;DHT22;9774;52.034;5.342;2024-01-06T06:01:18;8.60;69.20
19281;DHT22;9774;52.034;5.342;2024-01-06T06:03:46;8.60;68.60
19281;DHT22;9774;52.034;5.342;2024-01-06T06:06:14;8.60;68.50
19281;DHT22;9774;52.034;5.342;2024-01-06T06:08:42;8.50;68.50
19281;DHT22;9774;52.034;5.342;2024-01-06T06:11:09;8.50;68.50
19281;DHT22;9774;52.034;5.342;2024-01-06T06:13:37;8.50;68.70
19281;DHT22;9774;52.034;5.342;2024-01-06T06:16:08;8.50;68.60
19281;DHT22;9774;52.034;5.342;2024-01-06T06:18:37;8.50;68.50
19281;DHT22;9774;52.034;5.342;2024-01-06T06:21:05;8.50;68.60
19281;DHT22;9774;52.034;5.342;2024-01-06T06:23:34;8.50;68.60
19281;DHT22;9774;52.034;5.342;2024-01-06T06:26:05;8.50;68.70
19281;DHT22;9774;52.034;5.342;2024-01-06T06:28:32;8.50;68.70
19281;DHT22;9774;52.034;5.342;2024-01-06T06:30:59;8.50;68.70
19281;DHT22;9774;52.034;5.342;2024-01-06T06:33:27;8.50;68.70
19281;DHT22;9774;52.034;5.342;2024-01-06T06:35:54;8.50;68.60
19281;DHT22;9774;52.034;5.342;2024-01-06T06:38:21;8.50;68.50
19281;DHT22;9774;52.034;5.342;2024-01-06T06:40:49;8.50;68.60
19281;DHT22;9774;52.034;5.342;2024-01-06T06:43:16;8.50;68.60
19281;DHT22;9774;52.034;5.342;2024-01-06T06:45:43;8.50;68.60
19281;DHT22;9774;52.034;5.342;2024-01-06T06:48:10;8.40;68.60
19281;DHT22;9774;52.034;5.342;2024-01-06T06:50:37;8.40;68.70
19281;DHT22;9774;52.034;5.342;2024-01-06T06:53:07;8.40;68.80
19281;DHT22;9774;52.034;5.342;2024-01-06T06:55:34;8.40;68.70
19281;DHT22;9774;52.034;5.342;2024-01-06T06:58:04;8.40;68.60
19281;DHT22;9774;52.034;5.342;2024-01-06T07:00:31;8.50;68.60
19281;DHT22;9774;52.034;5.342;2024-01-06T07:02:59;8.40;68.60
19281;DHT22;9774;52.034;5.342;2024-01-06T07:05:26;8.40;68.60
19281;DHT22;9774;52.034;5.342;2024-01-06T07:07:53;8.40;68.50
19281;DHT22;9774;52.034;5.342;2024-01-06T07:10:20;8.40;68.50
19281;DHT22;9774;52.034;5.342;2024-01-06T07:12:48;8.40;68.50
19281;DHT22;9774;52.034;5.342;2024-01-06T07:15:17;8.40;68.50
19281;DHT22;9774;52.034;5.342;2024-01-06T07:17:44;8.30;68.50
19281;DHT22;9774;52.034;5.342;2024-01-06T07:20:11;8.30;68.40
19281;DHT22;9774;52.034;5.342;2024-01-06T07:22:39;8.30;68.50
19281;DHT22;9774;52.034;5.342;2024-01-06T07:25:07;8.30;68.60
19281;DHT22;9774;52.034;5.342;2024-01-06T07:27:34;8.30;68.80
19281;DHT22;9774;52.034;5.342;2024-01-06T07:30:01;8.30;68.80
19281;DHT22;9774;52.034;5.342;2024-01-06T07:32:30;8.30;68.80
19281;DHT22;9774;52.034;5.342;2024-01-06T07:34:57;8.30;68.80
19281;DHT22;9774;52.034;5.342;2024-01-06T07:37:24;8.20;68.60
19281;DHT22;9774;52.034;5.342;2024-01-06T07:39:52;8.30;68.70
19281;DHT22;9774;52.034;5.342;2024-01-06T07:42:19;8.30;68.80
19281;DHT22;9774;52.034;5.342;2024-01-06T07:44:47;8.30;68.70
19281;DHT22;9774;52.034;5.342;2024-01-06T07:47:14;8.30;68.60
19281;DHT22;9774;52.034;5.342;2024-01-06T07:49:43;8.20;68.50
19281;DHT22;9774;52.034;5.342;2024-01-06T07:52:10;8.30;68.60
19281;DHT22;9774;52.034;5.342;2024-01-06T07:54:37;8.30;68.60
19281;DHT22;9774;52.034;5.342;2024-01-06T07:57:04;8.30;68.40
19281;DHT22;9774;52.034;5.342;2024-01-06T07:59:31;8.30;68.50
19281;DHT22;9774;52.034;5.342;2024-01-06T08:01:58;8.30;68.40
19281;DHT22;9774;52.034;5.342;2024-01-06T08:04:25;8.30;68.40
19281;DHT22;9774;52.034;5.342;2024-01-06T08:06:53;8.30;68.40
19281;DHT22;9774;52.034;5.342;2024-01-06T08:09:21;8.30;68.40
19281;DHT22;9774;52.034;5.342;2024-01-06T08:11:49;8.30;68.40
19281;DHT22;9774;52.034;5.342;2024-01-06T08:14:16;8.30;68.40
19281;DHT22;9774;52.034;5.342;2024-01-06T08:16:43;8.30;68.40
19281;DHT22;9774;52.034;5.342;2024-01-06T08:19:10;8.30;68.40
19281;DHT22;9774;52.034;5.342;2024-01-06T08:21:37;8.30;68.30
19281;DHT22;9774;52.034;5.342;2024-01-06T08:24:06;8.30;68.30
19281;DHT22;9774;52.034;5.342;2024-01-06T08:26:33;8.30;68.30
19281;DHT22;9774;52.034;5.342;2024-01-06T08:29:00;8.30;68.20
19281;DHT22;9774;52.034;5.342;2024-01-06T08:31:27;8.30;68.30
19281;DHT22;9774;52.034;5.342;2024-01-06T08:33:53;8.30;68.30
19281;DHT22;9774;52.034;5.342;2024-01-06T08:36:20;8.30;68.20
19281;DHT22;9774;52.034;5.342;2024-01-06T08:38:48;8.30;68.10
19281;DHT22;9774;52.034;5.342;2024-01-06T08:41:16;8.30;68.10
19281;DHT22;9774;52.034;5.342;2024-01-06T08:43:43;8.30;68.20
19281;DHT22;9774;52.034;5.342;2024-01-06T08:46:10;8.30;68.20
19281;DHT22;9774;52.034;5.342;2024-01-06T08:48:37;8.30;68.20
19281;DHT22;9774;52.034;5.342;2024-01-06T08:51:04;8.30;68.20
19281;DHT22;9774;52.034;5.342;2024-01-06T08:53:31;8.30;68.20
19281;DHT22;9774;52.034;5.342;2024-01-06T08:55:58;8.30;68.10
19281;DHT22;9774;52.034;5.342;2024-01-06T08:58:27;8.30;68.10
19281;DHT22;9774;52.034;5.342;2024-01-06T09:00:54;8.30;68.20
19281;DHT22;9774;52.034;5.342;2024-01-06T09:03:21;8.30;68.20
19281;DHT22;9774;52.034;5.342;2024-01-06T09:05:51;8.30;68.10
19281;DHT22;9774;52.034;5.342;2024-01-06T09:08:18;8.30;68.80
19281;DHT22;9774;52.034;5.342;2024-01-06T09:10:46;8.30;68.10
19281;DHT22;9774;52.034;5.342;2024-01-06T09:13:13;8.30;68.00
19281;DHT22;9774;52.034;5.342;2024-01-06T09:15:41;8.40;68.00
19281;DHT22;9774;52.034;5.342;2024-01-06T09:18:09;8.40;68.10
19281;DHT22;9774;52.034;5.342;2024-01-06T09:20:36;8.40;68.20
19281;DHT22;9774;52.034;5.342;2024-01-06T09:23:04;8.40;68.10
19281;DHT22;9774;52.034;5.342;2024-01-06T09:25:31;8.40;68.00
19281;DHT22;9774;52.034;5.342;2024-01-06T09:27:58;8.40;67.90
19281;DHT22;9774;52.034;5.342;2024-01-06T09:30:26;8.50;68.00
19281;DHT22;9774;52.034;5.342;2024-01-06T09:32:54;8.50;67.90
19281;DHT22;9774;52.034;5.342;2024-01-06T09:35:21;8.50;67.90
19281;DHT22;9774;52.034;5.342;2024-01-06T09:37:48;8.50;67.90
19281;DHT22;9774;52.034;5.342;2024-01-06T09:40:21;8.50;67.90
19281;DHT22;9774;52.034;5.342;2024-01-06T09:42:49;8.60;67.70
19281;DHT22;9774;52.034;5.342;2024-01-06T09:45:16;8.60;67.60
19281;DHT22;9774;52.034;5.342;2024-01-06T09:47:49;8.60;67.60
19281;DHT22;9774;52.034;5.342;2024-01-06T09:50:19;8.60;67.60
19281;DHT22;9774;52.034;5.342;2024-01-06T09:52:48;8.60;67.50
19281;DHT22;9774;52.034;5.342;2024-01-06T09:55:23;8.70;67.70
19281;DHT22;9774;52.034;5.342;2024-01-06T09:57:52;8.70;67.70
19281;DHT22;9774;52.034;5.342;2024-01-06T10:00:20;8.70;67.80
19281;DHT22;9774;52.034;5.342;2024-01-06T10:02:48;8.70;67.70
19281;DHT22;9774;52.034;5.342;2024-01-06T10:05:17;8.80;67.60
19281;DHT22;9774;52.034;5.342;2024-01-06T10:07:46;8.80;67.50
19281;DHT22;9774;52.034;5.342;2024-01-06T10:10:14;8.80;67.40
19281;DHT22;9774;52.034;5.342;2024-01-06T10:12:42;8.80;67.40
19281;DHT22;9774;52.034;5.342;2024-01-06T10:15:10;8.80;67.40
19281;DHT22;9774;52.034;5.342;2024-01-06T10:17:38;8.80;67.40
19281;DHT22;9774;52.034;5.342;2024-01-06T10:20:09;8.80;67.30
19281;DHT22;9774;52.034;5.342;2024-01-06T10:22:41;8.90;67.40
19281;DHT22;9774;52.034;5.342;2024-01-06T10:25:10;8.90;67.40
19281;DHT22;9774;52.034;5.342;2024-01-06T10:27:39;8.90;67.20
19281;DHT22;9774;52.034;5.342;2024-01-06T10:30:08;8.90;67.20
19281;DHT22;9774;52.034;5.342;2024-01-06T10:32:36;8.90;67.10
19281;DHT22;9774;52.034;5.342;2024-01-06T10:35:04;8.90;67.10
19281;DHT22;9774;52.034;5.342;2024-01-06T10:37:32;8.90;67.10
19281;DHT22;9774;52.034;5.342;2024-01-06T10:40:09;8.90;67.00
19281;DHT22;9774;52.034;5.342;2024-01-06T10:42:37;8.90;66.90
19281;DHT22;9774;52.034;5.342;2024-01-06T10:45:07;9.00;66.90
19281;DHT22;9774;52.034;5.342;2024-01-06T10:47:36;9.00;66.90
19281;DHT22;9774;52.034;5.342;2024-01-06T10:50:04;9.00;67.00
19281;DHT22;9774;52.034;5.342;2024-01-06T10:52:33;9.00;67.00
19281;DHT22;9774;52.034;5.342;2024-01-06T10:55:01;9.00;66.90
19281;DHT22;9774;52.034;5.342;2024-01-06T10:57:30;9.00;66.80
19281;DHT22;9774;52.034;5.342;2024-01-06T10:59:59;9.00;66.70
19281;DHT22;9774;52.034;5.342;2024-01-06T11:02:26;9.00;66.40
19281;DHT22;9774;52.034;5.342;2024-01-06T11:04:54;9.00;66.50
19281;DHT22;9774;52.034;5.342;2024-01-06T11:07:22;9.00;66.50
19281;DHT22;9774;52.034;5.342;2024-01-06T11:09:55;9.00;66.40
19281;DHT22;9774;52.034;5.342;2024-01-06T11:12:24;9.00;66.20
19281;DHT22;9774;52.034;5.342;2024-01-06T11:14:53;9.00;66.30
19281;DHT22;9774;52.034;5.342;2024-01-06T11:17:51;8.90;66.40
19281;DHT22;9774;52.034;5.342;2024-01-06T11:20:24;9.00;66.30
19281;DHT22;9774;52.034;5.342;2024-01-06T11:22:52;9.00;66.50
19281;DHT22;9774;52.034;5.342;2024-01-06T11:25:20;9.00;66.40
19281;DHT22;9774;52.034;5.342;2024-01-06T11:27:49;9.00;66.30
19281;DHT22;9774;52.034;5.342;2024-01-06T11:30:25;8.90;66.30
19281;DHT22;9774;52.034;5.342;2024-01-06T11:32:55;8.90;66.20
19281;DHT22;9774;52.034;5.342;2024-01-06T11:35:26;8.90;66.20
19281;DHT22;9774;52.034;5.342;2024-01-06T11:37:55;8.90;66.30
19281;DHT22;9774;52.034;5.342;2024-01-06T11:40:25;8.90;66.30
19281;DHT22;9774;52.034;5.342;2024-01-06T11:43:01;8.90;66.40
19281;DHT22;9774;52.034;5.342;2024-01-06T11:45:32;8.90;66.40
19281;DHT22;9774;52.034;5.342;2024-01-06T11:48:01;8.90;66.50
19281;DHT22;9774;52.034;5.342;2024-01-06T11:50:31;8.90;66.30
19281;DHT22;9774;52.034;5.342;2024-01-06T11:52:59;8.90;66.30
19281;DHT22;9774;52.034;5.342;2024-01-06T11:55:27;8.90;66.20
19281;DHT22;9774;52.034;5.342;2024-01-06T11:57:54;8.90;66.20
19281;DHT22;9774;52.034;5.342;2024-01-06T12:00:23;8.90;66.20
19281;DHT22;9774;52.034;5.342;2024-01-06T12:02:55;8.90;66.00
19281;DHT22;9774;52.034;5.342;2024-01-06T12:05:23;8.90;66.00
19281;DHT22;9774;52.034;5.342;2024-01-06T12:07:56;8.90;66.00
19281;DHT22;9774;52.034;5.342;2024-01-06T12:10:25;8.90;66.00
19281;DHT22;9774;52.034;5.342;2024-01-06T12:12:58;8.90;66.10
19281;DHT22;9774;52.034;5.342;2024-01-06T12:15:26;8.90;66.10
19281;DHT22;9774;52.034;5.342;2024-01-06T12:17:56;8.90;66.00
19281;DHT22;9774;52.034;5.342;2024-01-06T12:20:25;8.90;66.10
19281;DHT22;9774;52.034;5.342;2024-01-06T12:22:55;8.90;66.30
19281;DHT22;9774;52.034;5.342;2024-01-06T12:25:23;8.90;66.30
19281;DHT22;9774;52.034;5.342;2024-01-06T12:27:52;8.90;66.20
19281;DHT22;9774;52.034;5.342;2024-01-06T12:30:21;8.90;66.10
19281;DHT22;9774;52.034;5.342;2024-01-06T12:32:49;8.90;65.90
19281;DHT22;9774;52.034;5.342;2024-01-06T12:35:20;8.90;65.90
19281;DHT22;9774;52.034;5.342;2024-01-06T12:37:48;8.90;66.00
19281;DHT22;9774;52.034;5.342;2024-01-06T12:40:16;8.90;65.90
19281;DHT22;9774;52.034;5.342;2024-01-06T12:42:45;8.90;65.90
19281;DHT22;9774;52.034;5.342;2024-01-06T12:45:12;8.90;65.90
19281;DHT22;9774;52.034;5.342;2024-01-06T12:47:41;8.90;65.80
19281;DHT22;9774;52.034;5.342;2024-01-06T12:50:09;9.00;65.90
19281;DHT22;9774;52.034;5.342;2024-01-06T12:52:37;8.90;65.80
19281;DHT22;9774;52.034;5.342;2024-01-06T12:55:05;8.90;65.70
19281;DHT22;9774;52.034;5.342;2024-01-06T12:57:33;8.90;65.80
19281;DHT22;9774;52.034;5.342;2024-01-06T13:00:00;8.90;65.70
19281;DHT22;9774;52.034;5.342;2024-01-06T13:02:27;8.90;65.80
19281;DHT22;9774;52.034;5.342;2024-01-06T13:04:54;8.90;65.60
19281;DHT22;9774;52.034;5.342;2024-01-06T13:07:22;8.90;65.60
19281;DHT22;9774;52.034;5.342;2024-01-06T13:09:50;8.80;65.50
19281;DHT22;9774;52.034;5.342;2024-01-06T13:12:18;8.80;65.40
19281;DHT22;9774;52.034;5.342;2024-01-06T13:14:45;8.80;65.50
19281;DHT22;9774;52.034;5.342;2024-01-06T13:17:13;8.80;65.60
19281;DHT22;9774;52.034;5.342;2024-01-06T13:19:40;8.80;65.70
19281;DHT22;9774;52.034;5.342;2024-01-06T13:22:07;8.80;65.60
19281;DHT22;9774;52.034;5.342;2024-01-06T13:24:35;8.80;65.60
19281;DHT22;9774;52.034;5.342;2024-01-06T13:27:03;8.80;65.70
19281;DHT22;9774;52.034;5.342;2024-01-06T13:29:31;8.80;65.80
19281;DHT22;9774;52.034;5.342;2024-01-06T13:31:58;8.80;66.50
19281;DHT22;9774;52.034;5.342;2024-01-06T13:34:25;8.80;65.80
19281;DHT22;9774;52.034;5.342;2024-01-06T13:36:55;8.80;65.70
19281;DHT22;9774;52.034;5.342;2024-01-06T13:39:24;8.80;65.70
19281;DHT22;9774;52.034;5.342;2024-01-06T13:41:51;8.70;65.60
19281;DHT22;9774;52.034;5.342;2024-01-06T13:44:19;8.70;65.50
19281;DHT22;9774;52.034;5.342;2024-01-06T13:46:48;8.70;65.60
19281;DHT22;9774;52.034;5.342;2024-01-06T13:49:16;8.70;65.50
19281;DHT22;9774;52.034;5.342;2024-01-06T13:51:44;8.60;65.40
19281;DHT22;9774;52.034;5.342;2024-01-06T13:54:11;8.60;65.40
19281;DHT22;9774;52.034;5.342;2024-01-06T13:56:38;8.60;65.50
19281;DHT22;9774;52.034;5.342;2024-01-06T13:59:05;8.60;65.50
19281;DHT22;9774;52.034;5.342;2024-01-06T14:01:34;8.60;65.50
19281;DHT22;9774;52.034;5.342;2024-01-06T14:04:02;8.60;65.60
19281;DHT22;9774;52.034;5.342;2024-01-06T14:06:31;8.60;65.80
19281;DHT22;9774;52.034;5.342;2024-01-06T14:08:59;8.60;65.70
19281;DHT22;9774;52.034;5.342;2024-01-06T14:11:27;8.60;65.60
19281;DHT22;9774;52.034;5.342;2024-01-06T14:13:57;8.50;65.60
19281;DHT22;9774;52.034;5.342;2024-01-06T14:16:25;8.50;65.60
19281;DHT22;9774;52.034;5.342;2024-01-06T14:18:53;8.50;65.70
19281;DHT22;9774;52.034;5.342;2024-01-06T14:21:20;8.50;65.60
19281;DHT22;9774;52.034;5.342;2024-01-06T14:23:47;8.50;65.60
19281;DHT22;9774;52.034;5.342;2024-01-06T14:26:15;8.50;65.60
19281;DHT22;9774;52.034;5.342;2024-01-06T14:28:43;8.40;65.60
19281;DHT22;9774;52.034;5.342;2024-01-06T14:31:10;8.40;65.70
19281;DHT22;9774;52.034;5.342;2024-01-06T14:33:37;8.40;65.60
19281;DHT22;9774;52.034;5.342;2024-01-06T14:36:06;8.40;65.60
19281;DHT22;9774;52.034;5.342;2024-01-06T14:38:34;8.40;65.70
19281;DHT22;9774;52.034;5.342;2024-01-06T14:41:01;8.40;65.80
19281;DHT22;9774;52.034;5.342;2024-01-06T14:43:28;8.40;65.80
19281;DHT22;9774;52.034;5.342;2024-01-06T14:45:55;8.40;65.90
19281;DHT22;9774;52.034;5.342;2024-01-06T14:48:22;8.40;66.00
19281;DHT22;9774;52.034;5.342;2024-01-06T14:50:50;8.40;66.60
19281;DHT22;9774;52.034;5.342;2024-01-06T14:53:18;8.40;65.80
19281;DHT22;9774;52.034;5.342;2024-01-06T14:55:45;8.40;65.80
19281;DHT22;9774;52.034;5.342;2024-01-06T14:58:12;8.40;65.90
19281;DHT22;9774;52.034;5.342;2024-01-06T15:00:39;8.40;65.80
19281;DHT22;9774;52.034;5.342;2024-01-06T15:03:06;8.40;65.80
19281;DHT22;9774;52.034;5.342;2024-01-06T15:05:33;8.30;65.70
19281;DHT22;9774;52.034;5.342;2024-01-06T15:08:00;8.30;65.80
19281;DHT22;9774;52.034;5.342;2024-01-06T15:10:29;8.30;65.70
19281;DHT22;9774;52.034;5.342;2024-01-06T15:12:56;8.30;65.70
19281;DHT22;9774;52.034;5.342;2024-01-06T15:15:23;8.30;65.60
19281;DHT22;9774;52.034;5.342;2024-01-06T15:17:50;8.30;65.70
19281;DHT22;9774;52.034;5.342;2024-01-06T15:20:17;8.30;65.70
19281;DHT22;9774;52.034;5.342;2024-01-06T15:22:44;8.30;65.80
19281;DHT22;9774;52.034;5.342;2024-01-06T15:25:11;8.30;65.70
19281;DHT22;9774;52.034;5.342;2024-01-06T15:27:40;8.30;65.60
19281;DHT22;9774;52.034;5.342;2024-01-06T15:30:07;8.30;65.70
19281;DHT22;9774;52.034;5.342;2024-01-06T15:32:35;8.30;65.60
19281;DHT22;9774;52.034;5.342;2024-01-06T15:35:03;8.30;65.70
19281;DHT22;9774;52.034;5.342;2024-01-06T15:37:31;8.30;65.70
19281;DHT22;9774;52.034;5.342;2024-01-06T15:39:58;8.20;65.70
19281;DHT22;9774;52.034;5.342;2024-01-06T15:42:25;8.20;65.70
19281;DHT22;9774;52.034;5.342;2024-01-06T15:44:54;8.20;65.60
19281;DHT22;9774;52.034;5.342;2024-01-06T15:47:21;8.20;65.60
19281;DHT22;9774;52.034;5.342;2024-01-06T15:49:48;8.20;65.70
19281;DHT22;9774;52.034;5.342;2024-01-06T15:52:15;8.20;65.80
19281;DHT22;9774;52.034;5.342;2024-01-06T15:54:47;8.20;65.70
19281;DHT22;9774;52.034;5.342;2024-01-06T15:57:14;8.20;65.60
19281;DHT22;9774;52.034;5.342;2024-01-06T15:59:42;8.20;65.70
19281;DHT22;9774;52.034;5.342;2024-01-06T16:02:10;8.20;65.80
19281;DHT22;9774;52.034;5.342;2024-01-06T16:04:38;8.20;65.70